Marianne — VRFM5 — position and weather

sailwx.info

Track history (hours):
 
Tides and Currents Weather Stations Pressure Air Temp Water Temp Dewpoint Dewpoint Depression Visibility Wind Speed Wind Dir Waves Ship Positions

Marianne

Last reported at 2016-Sep-28 01:31 UTC. Time now 2016-Sep-28 01:49 UTC.
Position N 54°31' E 018°42'.

Length 97 m; draft 5.5 m.

Type: Ship (hazmat cat B). MMSI: 477560836.

Date/timePositionNaut miles runAvg speedWind from/ knotsBaromVisibWave heightAir tempDewpointWater temp
2016-Sep-28 01:31N 54°31' E 018°42'0 0.0
2016-Sep-27 23:31N 54°31' E 018°42'0 0.0
2016-Sep-27 19:31N 54°31' E 018°42'0 0.0
2016-Sep-27 14:31N 54°31' E 018°42'0 0.0
2016-Sep-27 13:31N 54°31' E 018°42'0 0.0
2016-Sep-27 10:31N 54°31' E 018°42'9 0.9
2016-Sep-27 00:33N 54°37' E 018°54'4511.2
2016-Sep-26 20:33N 55°08' E 017°58'1512.6
2016-Sep-26 19:21N 55°15' E 017°35'7312.6
2016-Sep-26 13:33N 55°51' E 015°42'2512.5
2016-Sep-26 11:33N 56°03' E 015°03'18 0.8
2016-Sep-25 12:13N 55°46' E 014°52'913.4
2016-Sep-25 11:33N 55°38' E 014°46'1413.6
2016-Sep-25 10:33N 55°25' E 014°38'1313.6
2016-Sep-25 09:33N 55°14' E 014°23'2713.6
2016-Sep-25 07:33N 54°55' E 013°51'3912.8
2016-Sep-25 04:30N 54°17' E 014°08'4310.3
2016-Sep-25 00:22N 53°37' E 014°35'1 0.0
2016-Sep-24 03:33N 53°38' E 014°35'81 8.1
2016-Sep-23 17:33N 54°55' E 013°50'1212.2
2016-Sep-23 16:33N 55°04' E 014°04'1212.1
2016-Sep-23 15:33N 55°13' E 014°18'2512.3
2016-Sep-23 13:33N 55°34' E 014°42'140 4.2
2016-Sep-22 04:34N 54°51' E 018°35'1313.4
2016-Sep-22 03:33N 54°44' E 018°55'17 5.8
2016-Sep-22 00:32N 54°32' E 018°33'0 0.0
2016-Sep-21 23:32N 54°32' E 018°33'0 0.0
2016-Sep-21 22:32N 54°32' E 018°33'0 0.0
2016-Sep-21 19:32N 54°32' E 018°33'0 0.0
2016-Sep-21 16:32N 54°32' E 018°33'0 0.0
2016-Sep-21 09:32N 54°32' E 018°33'0 0.0
2016-Sep-21 08:32N 54°32' E 018°33'0 0.0
2016-Sep-21 05:32N 54°32' E 018°33'0 0.0
2016-Sep-21 03:32N 54°32' E 018°33'0 0.2
2016-Sep-21 02:34N 54°31' E 018°34'28 3.1
2016-Sep-20 17:33N 54°58' E 018°18'12612.6
2016-Sep-20 07:33N 54°37' E 014°41'6212.3
2016-Sep-20 02:28N 55°07' E 013°07'29 9.8
2016-Sep-19 23:33N 55°34' E 012°49'4410.9
2016-Sep-19 19:33N 56°13' E 012°15'1711.6
2016-Sep-19 18:04N 56°28' E 011°59'2013.4
2016-Sep-19 16:33N 56°48' E 011°50'2713.4
2016-Sep-19 14:33N 57°13' E 011°33'1312.7
2016-Sep-19 13:33N 57°25' E 011°26'1212.3
2016-Sep-19 12:33N 57°34' E 011°10'1313.2
2016-Sep-19 11:33N 57°43' E 010°52'2613.2
2016-Sep-19 09:33N 57°47' E 010°03'2613.1
2016-Sep-19 07:33N 57°35' E 009°20'1313.3
2016-Sep-19 06:33N 57°29' E 008°58'  
Track history (hours):
 
Tides and Currents Weather Stations Pressure Air Temp Water Temp Dewpoint Dewpoint Depression Visibility Wind Speed Wind Dir Waves Ship Positions

Marianne

Last reported at 2016-Sep-28 01:31 UTC. Time now 2016-Sep-28 01:49 UTC.
Position N 54°31' E 018°42'.

Length 97 m; draft 5.5 m.

Type: Ship (hazmat cat B). MMSI: 477560836.

Date/timePositionNaut miles runAvg speedWind from/ knotsBaromVisibWave heightAir tempDewpointWater temp
2016-Sep-28 01:31N 54°31' E 018°42'0 0.0
2016-Sep-27 23:31N 54°31' E 018°42'0 0.0
2016-Sep-27 19:31N 54°31' E 018°42'0 0.0
2016-Sep-27 14:31N 54°31' E 018°42'0 0.0
2016-Sep-27 13:31N 54°31' E 018°42'0 0.0
2016-Sep-27 10:31N 54°31' E 018°42'9 0.9
2016-Sep-27 00:33N 54°37' E 018°54'4511.2
2016-Sep-26 20:33N 55°08' E 017°58'1512.6
2016-Sep-26 19:21N 55°15' E 017°35'7312.6
2016-Sep-26 13:33N 55°51' E 015°42'2512.5
2016-Sep-26 11:33N 56°03' E 015°03'18 0.8
2016-Sep-25 12:13N 55°46' E 014°52'913.4
2016-Sep-25 11:33N 55°38' E 014°46'1413.6
2016-Sep-25 10:33N 55°25' E 014°38'1313.6
2016-Sep-25 09:33N 55°14' E 014°23'2713.6
2016-Sep-25 07:33N 54°55' E 013°51'3912.8
2016-Sep-25 04:30N 54°17' E 014°08'4310.3
2016-Sep-25 00:22N 53°37' E 014°35'1 0.0
2016-Sep-24 03:33N 53°38' E 014°35'81 8.1
2016-Sep-23 17:33N 54°55' E 013°50'1212.2
2016-Sep-23 16:33N 55°04' E 014°04'1212.1
2016-Sep-23 15:33N 55°13' E 014°18'2512.3
2016-Sep-23 13:33N 55°34' E 014°42'140 4.2
2016-Sep-22 04:34N 54°51' E 018°35'1313.4
2016-Sep-22 03:33N 54°44' E 018°55'17 5.8
2016-Sep-22 00:32N 54°32' E 018°33'0 0.0
2016-Sep-21 23:32N 54°32' E 018°33'0 0.0
2016-Sep-21 22:32N 54°32' E 018°33'0 0.0
2016-Sep-21 19:32N 54°32' E 018°33'0 0.0
2016-Sep-21 16:32N 54°32' E 018°33'0 0.0
2016-Sep-21 09:32N 54°32' E 018°33'0 0.0
2016-Sep-21 08:32N 54°32' E 018°33'0 0.0
2016-Sep-21 05:32N 54°32' E 018°33'0 0.0
2016-Sep-21 03:32N 54°32' E 018°33'0 0.2
2016-Sep-21 02:34N 54°31' E 018°34'28 3.1
2016-Sep-20 17:33N 54°58' E 018°18'12612.6
2016-Sep-20 07:33N 54°37' E 014°41'6212.3
2016-Sep-20 02:28N 55°07' E 013°07'29 9.8
2016-Sep-19 23:33N 55°34' E 012°49'4410.9
2016-Sep-19 19:33N 56°13' E 012°15'1711.6
2016-Sep-19 18:04N 56°28' E 011°59'2013.4
2016-Sep-19 16:33N 56°48' E 011°50'2713.4
2016-Sep-19 14:33N 57°13' E 011°33'1312.7
2016-Sep-19 13:33N 57°25' E 011°26'1212.3
2016-Sep-19 12:33N 57°34' E 011°10'1313.2
2016-Sep-19 11:33N 57°43' E 010°52'2613.2
2016-Sep-19 09:33N 57°47' E 010°03'2613.1
2016-Sep-19 07:33N 57°35' E 009°20'1313.3
2016-Sep-19 06:33N 57°29' E 008°58'  

Dump ship's entire track history